sensor_id;sensor_type;location;lat;lon;timestamp;P1;durP1;ratioP1;P2;durP2;ratioP2
63581;SDS011;49727;51.078;17.066;2023-02-18T00:11:52;2.07;;;0.90;;
63581;SDS011;49727;51.078;17.066;2023-02-18T00:26:52;0.47;;;0.40;;
63581;SDS011;49727;51.078;17.066;2023-02-18T00:41:53;0.80;;;0.70;;
63581;SDS011;49727;51.078;17.066;2023-02-18T00:56:53;2.10;;;0.73;;
63581;SDS011;49727;51.078;17.066;2023-02-18T01:11:53;3.85;;;0.70;;
63581;SDS011;49727;51.078;17.066;2023-02-18T01:26:54;0.73;;;0.55;;
63581;SDS011;49727;51.078;17.066;2023-02-18T01:41:54;4.60;;;0.70;;
63581;SDS011;49727;51.078;17.066;2023-02-18T02:12:05;2.30;;;0.83;;
63581;SDS011;49727;51.078;17.066;2023-02-18T02:57:53;3.83;;;1.15;;
63581;SDS011;49727;51.078;17.066;2023-02-18T03:13:03;1.88;;;0.50;;
63581;SDS011;49727;51.078;17.066;2023-02-18T03:28:24;0.77;;;0.40;;
63581;SDS011;49727;51.078;17.066;2023-02-18T03:43:31;3.25;;;0.47;;
63581;SDS011;49727;51.078;17.066;2023-02-18T03:58:31;4.07;;;0.60;;
63581;SDS011;49727;51.078;17.066;2023-02-18T04:13:32;1.02;;;0.40;;
63581;SDS011;49727;51.078;17.066;2023-02-18T04:28:32;2.72;;;0.70;;
63581;SDS011;49727;51.078;17.066;2023-02-18T04:43:33;1.13;;;0.52;;
63581;SDS011;49727;51.078;17.066;2023-02-18T04:58:33;2.70;;;0.43;;
63581;SDS011;49727;51.078;17.066;2023-02-18T05:13:34;0.65;;;0.30;;
63581;SDS011;49727;51.078;17.066;2023-02-18T05:28:34;2.10;;;0.57;;
63581;SDS011;49727;51.078;17.066;2023-02-18T05:43:35;5.20;;;1.23;;
63581;SDS011;49727;51.078;17.066;2023-02-18T05:58:55;2.05;;;0.45;;
63581;SDS011;49727;51.078;17.066;2023-02-18T06:13:56;1.60;;;0.40;;
63581;SDS011;49727;51.078;17.066;2023-02-18T06:28:57;1.17;;;0.47;;
63581;SDS011;49727;51.078;17.066;2023-02-18T06:43:57;3.13;;;0.50;;
63581;SDS011;49727;51.078;17.066;2023-02-18T06:58:58;1.58;;;0.63;;
63581;SDS011;49727;51.078;17.066;2023-02-18T07:13:58;1.27;;;0.55;;
63581;SDS011;49727;51.078;17.066;2023-02-18T07:28:58;2.50;;;0.70;;
63581;SDS011;49727;51.078;17.066;2023-02-18T07:43:59;1.75;;;0.70;;
63581;SDS011;49727;51.078;17.066;2023-02-18T07:58:59;1.70;;;0.75;;
63581;SDS011;49727;51.078;17.066;2023-02-18T08:14:00;1.70;;;0.77;;
63581;SDS011;49727;51.078;17.066;2023-02-18T08:29:00;1.75;;;0.80;;
63581;SDS011;49727;51.078;17.066;2023-02-18T08:44:01;4.10;;;0.80;;
63581;SDS011;49727;51.078;17.066;2023-02-18T08:59:02;5.35;;;0.82;;
63581;SDS011;49727;51.078;17.066;2023-02-18T09:14:02;2.60;;;1.05;;
63581;SDS011;49727;51.078;17.066;2023-02-18T09:29:03;2.50;;;0.50;;
63581;SDS011;49727;51.078;17.066;2023-02-18T09:44:22;3.97;;;1.08;;
63581;SDS011;49727;51.078;17.066;2023-02-18T09:59:25;1.10;;;0.50;;
63581;SDS011;49727;51.078;17.066;2023-02-18T10:14:26;2.42;;;0.70;;
63581;SDS011;49727;51.078;17.066;2023-02-18T10:29:28;3.23;;;0.80;;
63581;SDS011;49727;51.078;17.066;2023-02-18T10:44:46;3.97;;;1.30;;
63581;SDS011;49727;51.078;17.066;2023-02-18T11:00:03;5.50;;;1.93;;
63581;SDS011;49727;51.078;17.066;2023-02-18T11:45:37;8.80;;;2.00;;
63581;SDS011;49727;51.078;17.066;2023-02-18T12:00:39;7.28;;;2.45;;
63581;SDS011;49727;51.078;17.066;2023-02-18T12:15:46;9.90;;;2.90;;
63581;SDS011;49727;51.078;17.066;2023-02-18T12:31:05;9.50;;;3.33;;
63581;SDS011;49727;51.078;17.066;2023-02-18T13:01:50;10.07;;;2.95;;
63581;SDS011;49727;51.078;17.066;2023-02-18T13:16:56;8.43;;;3.75;;
63581;SDS011;49727;51.078;17.066;2023-02-18T13:32:11;11.80;;;5.23;;
63581;SDS011;49727;51.078;17.066;2023-02-18T14:02:54;13.05;;;5.57;;
63581;SDS011;49727;51.078;17.066;2023-02-18T14:33:18;14.40;;;6.43;;
63581;SDS011;49727;51.078;17.066;2023-02-18T15:03:24;13.73;;;7.67;;
63581;SDS011;49727;51.078;17.066;2023-02-18T15:18:33;15.53;;;8.47;;
63581;SDS011;49727;51.078;17.066;2023-02-18T15:33:43;2.63;;;1.63;;
63581;SDS011;49727;51.078;17.066;2023-02-18T15:48:44;2.83;;;1.50;;
63581;SDS011;49727;51.078;17.066;2023-02-18T16:03:46;2.13;;;0.80;;
63581;SDS011;49727;51.078;17.066;2023-02-18T16:18:48;1.83;;;0.90;;
63581;SDS011;49727;51.078;17.066;2023-02-18T16:33:48;2.13;;;1.05;;
63581;SDS011;49727;51.078;17.066;2023-02-18T16:48:50;1.38;;;0.88;;
63581;SDS011;49727;51.078;17.066;2023-02-18T17:03:54;4.40;;;0.97;;
63581;SDS011;49727;51.078;17.066;2023-02-18T17:18:55;1.67;;;1.03;;
63581;SDS011;49727;51.078;17.066;2023-02-18T17:33:58;1.85;;;0.93;;
63581;SDS011;49727;51.078;17.066;2023-02-18T17:49:01;1.53;;;0.90;;
63581;SDS011;49727;51.078;17.066;2023-02-18T18:04:01;2.40;;;1.08;;
63581;SDS011;49727;51.078;17.066;2023-02-18T18:19:02;3.28;;;1.30;;
63581;SDS011;49727;51.078;17.066;2023-02-18T18:34:02;1.33;;;1.23;;
63581;SDS011;49727;51.078;17.066;2023-02-18T18:49:02;2.45;;;1.10;;
63581;SDS011;49727;51.078;17.066;2023-02-18T19:04:03;2.35;;;1.33;;
63581;SDS011;49727;51.078;17.066;2023-02-18T19:19:03;6.15;;;1.90;;
63581;SDS011;49727;51.078;17.066;2023-02-18T19:34:04;3.92;;;0.75;;
63581;SDS011;49727;51.078;17.066;2023-02-18T19:49:04;3.28;;;1.35;;
63581;SDS011;49727;51.078;17.066;2023-02-18T20:04:05;2.78;;;0.80;;
63581;SDS011;49727;51.078;17.066;2023-02-18T20:19:05;3.80;;;1.23;;
63581;SDS011;49727;51.078;17.066;2023-02-18T20:34:05;1.92;;;0.90;;
63581;SDS011;49727;51.078;17.066;2023-02-18T20:49:07;2.70;;;1.52;;
63581;SDS011;49727;51.078;17.066;2023-02-18T21:04:15;5.47;;;2.80;;
63581;SDS011;49727;51.078;17.066;2023-02-18T21:19:18;2.03;;;1.20;;
63581;SDS011;49727;51.078;17.066;2023-02-18T21:34:18;1.73;;;1.13;;
63581;SDS011;49727;51.078;17.066;2023-02-18T21:49:20;2.28;;;1.13;;
63581;SDS011;49727;51.078;17.066;2023-02-18T22:04:20;2.22;;;1.10;;
63581;SDS011;49727;51.078;17.066;2023-02-18T22:19:20;3.03;;;1.67;;
63581;SDS011;49727;51.078;17.066;2023-02-18T22:34:21;3.97;;;2.08;;
63581;SDS011;49727;51.078;17.066;2023-02-18T22:49:22;3.00;;;1.88;;
63581;SDS011;49727;51.078;17.066;2023-02-18T23:04:23;4.72;;;2.42;;
63581;SDS011;49727;51.078;17.066;2023-02-18T23:19:25;6.05;;;2.38;;
63581;SDS011;49727;51.078;17.066;2023-02-18T23:34:27;4.95;;;2.88;;
63581;SDS011;49727;51.078;17.066;2023-02-18T23:49:27;5.90;;;3.08;;
